createdAt,value
2018-10-03T00:02:38.772Z,99302.57
2018-10-03T00:05:45.868Z,99301.28
2018-10-03T00:08:52.606Z,99308.48
2018-10-03T00:12:00.121Z,99313.89
2018-10-03T00:15:05.905Z,99312.34
2018-10-03T00:18:12.193Z,99307.02
2018-10-03T00:21:19.257Z,99311.31
2018-10-03T00:24:25.282Z,99318.24
2018-10-03T00:27:30.354Z,99315.17
2018-10-03T00:30:37.109Z,99316.20
2018-10-03T00:33:43.834Z,99317.98
2018-10-03T00:36:49.819Z,99309.30
2018-10-03T00:39:56.713Z,99310.22
2018-10-03T00:43:04.938Z,99312.94
2018-10-03T00:46:11.398Z,99312.52
2018-10-03T00:49:17.389Z,99312.86
2018-10-03T00:52:22.397Z,99301.42
2018-10-03T00:55:28.525Z,99309.98
2018-10-03T00:58:34.414Z,99313.56
2018-10-03T01:01:39.411Z,99301.81
2018-10-03T01:04:45.249Z,99304.42
2018-10-03T01:07:51.066Z,99312.63
2018-10-03T01:10:56.153Z,99314.12
2018-10-03T01:14:02.045Z,99306.89
2018-10-03T01:17:07.146Z,99309.30
2018-10-03T01:20:12.868Z,99311.54
2018-10-03T01:23:21.551Z,99310.48
2018-10-03T01:26:26.559Z,99312.52
2018-10-03T01:29:32.556Z,99319.53
2018-10-03T01:32:37.580Z,99317.22
2018-10-03T01:35:43.778Z,99314.11
2018-10-03T01:38:49.774Z,99322.82
2018-10-03T01:41:55.734Z,99323.25
2018-10-03T01:45:01.366Z,99308.41
2018-10-03T01:48:06.455Z,99300.28
2018-10-03T01:51:11.597Z,99301.13
2018-10-03T01:54:17.386Z,99306.45
2018-10-03T01:57:25.628Z,99290.47
2018-10-03T02:00:31.426Z,99293.27
2018-10-03T02:03:36.458Z,99286.66
2018-10-03T02:06:41.539Z,99280.18
2018-10-03T02:09:47.894Z,99281.55
2018-10-03T02:12:54.063Z,99288.03
2018-10-03T02:15:59.248Z,99302.02
2018-10-03T02:19:05.249Z,99299.30
2018-10-03T02:22:11.217Z,99290.39
2018-10-03T02:25:17.287Z,99288.66
2018-10-03T02:28:23.885Z,99290.73
2018-10-03T02:31:31.169Z,99293.49
2018-10-03T02:34:49.711Z,99292.02
2018-10-03T02:37:57.378Z,99298.64
2018-10-03T02:41:06.991Z,99288.62
2018-10-03T02:44:14.052Z,99285.30
2018-10-03T02:47:26.017Z,99285.86
2018-10-03T02:50:35.159Z,99286.34
2018-10-03T02:53:41.810Z,99294.91
2018-10-03T02:56:48.505Z,99298.58
2018-10-03T02:59:55.054Z,99299.34
2018-10-03T03:03:00.822Z,99295.80
2018-10-03T03:06:07.074Z,99305.52
2018-10-03T03:09:13.994Z,99302.45
2018-10-03T03:12:20.214Z,99313.33
2018-10-03T03:15:25.249Z,99319.95
2018-10-03T03:18:30.277Z,99326.66
2018-10-03T03:21:35.596Z,99327.01
2018-10-03T03:24:40.635Z,99333.80
2018-10-03T03:27:45.626Z,99336.38
2018-10-03T03:30:51.467Z,99328.69
2018-10-03T03:33:57.245Z,99330.95
2018-10-03T03:37:03.834Z,99324.11
2018-10-03T03:40:09.618Z,99327.88
2018-10-03T03:43:16.634Z,99326.06
2018-10-03T03:46:21.645Z,99335.83
2018-10-03T03:49:28.134Z,99331.92
2018-10-03T03:52:34.214Z,99329.36
2018-10-03T03:55:39.193Z,99330.95
2018-10-03T03:58:44.324Z,99329.84
2018-10-03T04:01:50.137Z,99325.41
2018-10-03T04:04:57.625Z,99328.47
2018-10-03T04:08:03.320Z,99335.92
2018-10-03T04:11:08.384Z,99330.19
2018-10-03T04:14:14.657Z,99340.95
2018-10-03T04:17:20.385Z,99341.66
2018-10-03T04:20:26.171Z,99340.86
2018-10-03T04:23:32.200Z,99337.27
2018-10-03T04:26:39.257Z,99339.79
2018-10-03T04:29:45.554Z,99340.23
2018-10-03T04:32:51.377Z,99350.36
2018-10-03T04:35:57.116Z,99357.82
2018-10-03T04:39:04.915Z,99370.13
2018-10-03T04:42:11.279Z,99375.27
2018-10-03T04:45:17.021Z,99379.67
2018-10-03T04:48:22.044Z,99389.52
2018-10-03T04:51:27.990Z,99385.94
2018-10-03T04:54:34.423Z,99395.66
2018-10-03T04:57:40.724Z,99386.73
2018-10-03T05:00:46.556Z,99391.80
2018-10-03T05:03:52.505Z,99395.88
2018-10-03T05:06:58.279Z,99391.57
2018-10-03T05:10:03.402Z,99386.02
2018-10-03T05:14:55.694Z,99395.25
2018-10-03T05:18:01.753Z,99395.52
2018-10-03T05:21:09.326Z,99409.21
2018-10-03T05:24:15.438Z,99402.68
2018-10-03T05:27:20.455Z,99402.62
2018-10-03T05:30:26.601Z,99403.44
2018-10-03T05:33:33.033Z,99406.14
2018-10-03T05:36:38.870Z,99410.50
2018-10-03T05:39:43.938Z,99423.23
2018-10-03T05:42:50.525Z,99420.53
2018-10-03T05:45:55.595Z,99423.33
2018-10-03T05:49:01.426Z,99429.63
2018-10-03T05:52:08.454Z,99431.90
2018-10-03T05:55:13.618Z,99441.16
2018-10-03T05:58:18.640Z,99441.86
2018-10-03T06:01:24.832Z,99452.39
2018-10-03T06:04:30.469Z,99441.94
2018-10-03T06:07:36.653Z,99446.52
2018-10-03T06:10:41.675Z,99452.63
2018-10-03T06:13:47.506Z,99453.11
2018-10-03T06:16:54.297Z,99462.07
2018-10-03T06:20:00.063Z,99468.23
2018-10-03T06:23:06.926Z,99467.10
2018-10-03T06:26:12.018Z,99480.75
2018-10-03T06:29:18.185Z,99488.48
2018-10-03T06:32:23.966Z,99495.91
2018-10-03T06:35:35.798Z,99498.68
2018-10-03T06:38:49.010Z,99506.20
2018-10-03T06:42:00.074Z,99510.48
2018-10-03T06:45:08.137Z,99521.11
2018-10-03T06:48:18.085Z,99524.66
2018-10-03T06:51:28.927Z,99522.02
2018-10-03T06:54:43.770Z,99527.90
2018-10-03T06:57:54.110Z,99527.21
2018-10-03T07:01:07.328Z,99525.48
2018-10-03T07:04:18.913Z,99527.97
2018-10-03T07:07:28.030Z,99529.27
2018-10-03T07:10:38.186Z,99533.30
2018-10-03T07:13:46.239Z,99532.28
2018-10-03T07:17:00.803Z,99532.88
2018-10-03T07:20:06.911Z,99527.86
2018-10-03T07:23:12.735Z,99528.73
2018-10-03T07:55:27.300Z,99588.80
2018-10-03T07:58:33.530Z,99587.80
2018-10-03T08:01:38.550Z,99588.82
2018-10-03T08:04:43.607Z,99580.25
2018-10-03T08:07:53.838Z,99581.84
2018-10-03T08:10:59.943Z,99572.82
2018-10-03T08:14:05.815Z,99580.38
2018-10-03T08:17:10.860Z,99580.53
2018-10-03T08:20:17.003Z,99582.63
2018-10-03T08:23:23.594Z,99585.19
2018-10-03T08:26:29.352Z,99583.84
2018-10-03T08:29:42.725Z,99591.70
2018-10-03T08:33:00.159Z,99590.72
2018-10-03T08:36:14.169Z,99587.68
2018-10-03T08:39:30.114Z,99595.47
2018-10-03T08:47:58.197Z,99599.70
2018-10-03T08:51:08.259Z,99601.17
2018-10-03T08:54:20.274Z,99598.56
2018-10-03T08:57:34.329Z,99610.67
2018-10-03T09:00:44.452Z,99608.08
2018-10-03T09:03:56.942Z,99618.84
2018-10-03T09:07:08.517Z,99615.34
2018-10-03T09:10:52.001Z,99623.22
2018-10-03T09:14:02.918Z,99617.25
2018-10-03T09:17:17.477Z,99609.47
2018-10-03T09:20:29.771Z,99613.05
2018-10-03T09:23:56.616Z,99604.98
2018-10-03T09:27:09.309Z,99613.28
2018-10-03T09:30:19.740Z,99613.49
2018-10-03T09:33:30.963Z,99621.75
2018-10-03T09:36:40.358Z,99619.02
2018-10-03T09:39:59.077Z,99614.61
2018-10-03T09:43:08.328Z,99622.55
2018-10-03T09:46:18.725Z,99617.12
2018-10-03T09:49:28.333Z,99625.00
2018-10-03T09:52:40.270Z,99634.38
2018-10-03T10:08:12.996Z,99661.10
2018-10-03T10:11:24.720Z,99662.73
2018-10-03T10:14:33.815Z,99668.75
2018-10-03T10:17:43.668Z,99669.31
2018-10-03T10:20:55.031Z,99667.02
2018-10-03T10:24:05.775Z,99673.22
2018-10-03T10:27:17.446Z,99667.13
2018-10-03T10:30:27.508Z,99672.14
2018-10-03T10:33:39.352Z,99666.84
2018-10-03T10:36:52.652Z,99668.44
2018-10-03T10:40:03.080Z,99665.84
2018-10-03T10:43:16.697Z,99668.73
2018-10-03T10:46:25.564Z,99664.73
2018-10-03T10:49:41.757Z,99661.72
2018-10-03T10:52:51.603Z,99677.54
2018-10-03T10:55:59.728Z,99670.64
2018-10-03T10:59:04.791Z,99676.11
2018-10-03T11:02:11.008Z,99668.34
2018-10-03T11:05:17.226Z,99670.32
2018-10-03T11:08:30.003Z,99673.75
2018-10-03T11:11:35.549Z,99672.65
2018-10-03T11:14:42.157Z,99663.17
2018-10-03T11:17:48.185Z,99662.73
2018-10-03T11:20:53.223Z,99661.98
2018-10-03T11:23:59.256Z,99667.76
2018-10-03T11:27:06.194Z,99678.45
2018-10-03T11:30:11.286Z,99668.09
2018-10-03T11:33:17.150Z,99670.52
2018-10-03T11:36:25.810Z,99671.12
2018-10-03T11:39:30.861Z,99661.97
2018-10-03T11:42:36.688Z,99664.39
2018-10-03T11:45:44.392Z,99665.18
2018-10-03T11:48:57.063Z,99662.30
2018-10-03T11:52:06.939Z,99659.39
2018-10-03T11:55:16.864Z,99660.00
2018-10-03T11:58:27.353Z,99662.88
2018-10-03T12:01:41.404Z,99667.18
2018-10-03T12:04:49.945Z,99667.45
2018-10-03T12:08:00.453Z,99664.03
2018-10-03T12:15:02.995Z,99654.95
2018-10-03T12:18:15.109Z,99646.87
2018-10-03T12:21:31.718Z,99654.06
2018-10-03T12:24:41.852Z,99654.34
2018-10-03T12:27:50.976Z,99654.26
2018-10-03T12:31:05.580Z,99654.66
2018-10-03T12:34:16.107Z,99656.85
2018-10-03T12:37:30.859Z,99655.94
2018-10-03T12:40:40.221Z,99641.86
2018-10-03T12:43:50.544Z,99639.03
2018-10-03T12:46:59.404Z,99632.09
2018-10-03T12:50:12.864Z,99636.16
2018-10-03T12:53:24.825Z,99645.66
2018-10-03T12:56:38.175Z,99649.99
2018-10-03T12:59:48.052Z,99653.59
2018-10-03T13:03:00.722Z,99652.39
2018-10-03T13:06:12.313Z,99659.91
2018-10-03T13:09:21.953Z,99653.03
2018-10-03T13:12:38.626Z,99662.00
2018-10-03T13:15:53.673Z,99655.42
2018-10-03T13:19:00.835Z,99660.56
2018-10-03T13:22:10.695Z,99651.33
2018-10-03T13:25:20.465Z,99649.66
2018-10-03T13:28:29.049Z,99650.36
2018-10-03T13:31:44.302Z,99647.56
2018-10-03T13:34:53.962Z,99638.05
2018-10-03T13:38:08.995Z,99640.64
2018-10-03T13:41:19.511Z,99633.78
2018-10-03T13:44:30.651Z,99640.41
2018-10-03T13:47:39.216Z,99629.28
2018-10-03T13:50:48.319Z,99636.58
2018-10-03T13:53:57.674Z,99632.93
2018-10-03T13:57:10.211Z,99627.50
2018-10-03T14:00:17.366Z,99629.20
2018-10-03T14:03:29.007Z,99631.80
2018-10-03T14:06:38.558Z,99635.86
2018-10-03T14:09:48.271Z,99630.28
2018-10-03T14:12:57.159Z,99637.39
2018-10-03T14:16:06.596Z,99639.43
2018-10-03T14:19:20.225Z,99639.78
2018-10-03T14:22:29.210Z,99647.20
2018-10-03T14:25:39.008Z,99649.42
2018-10-03T14:28:50.230Z,99642.33
2018-10-03T14:32:03.506Z,99640.77
2018-10-03T14:35:18.217Z,99640.70
2018-10-03T14:38:29.326Z,99648.36
2018-10-03T14:41:35.826Z,99649.94
2018-10-03T14:44:44.945Z,99653.49
2018-10-03T14:47:50.004Z,99661.84
2018-10-03T14:50:54.981Z,99661.50
2018-10-03T14:54:00.314Z,99664.42
2018-10-03T14:57:08.423Z,99663.89
2018-10-03T15:00:15.093Z,99671.95
2018-10-03T15:03:21.275Z,99676.05
2018-10-03T15:06:27.209Z,99676.78
2018-10-03T15:09:32.298Z,99681.59
2018-10-03T15:12:37.476Z,99686.69
2018-10-03T15:15:43.743Z,99677.31
2018-10-03T15:18:50.038Z,99672.44
2018-10-03T15:21:56.422Z,99671.58
2018-10-03T15:25:02.469Z,99674.28
2018-10-03T15:28:08.470Z,99675.83
2018-10-03T15:31:13.703Z,99675.66
2018-10-03T15:34:20.434Z,99688.02
2018-10-03T15:37:27.853Z,99689.83
2018-10-03T15:40:33.874Z,99687.50
2018-10-03T15:43:41.445Z,99692.19
2018-10-03T15:46:48.439Z,99690.65
2018-10-03T15:49:57.508Z,99692.28
2018-10-03T15:53:03.594Z,99699.39
2018-10-03T15:56:09.933Z,99704.16
2018-10-03T15:59:15.049Z,99704.53
2018-10-03T16:02:21.963Z,99711.50
2018-10-03T16:05:28.214Z,99710.28
2018-10-03T16:08:36.959Z,99720.56
2018-10-03T16:11:43.320Z,99721.17
2018-10-03T16:14:56.183Z,99723.89
2018-10-03T16:18:03.174Z,99727.59
2018-10-03T16:21:09.220Z,99722.92
2018-10-03T16:24:15.520Z,99720.81
2018-10-03T16:27:21.745Z,99725.87
2018-10-03T16:30:27.982Z,99720.59
2018-10-03T16:33:33.717Z,99726.14
2018-10-03T16:36:39.413Z,99730.94
2018-10-03T16:39:44.728Z,99737.09
2018-10-03T16:42:51.335Z,99738.23
2018-10-03T16:45:57.037Z,99741.20
2018-10-03T16:49:02.429Z,99748.48
2018-10-03T16:52:08.662Z,99755.56
2018-10-03T16:55:15.003Z,99763.21
2018-10-03T16:58:22.369Z,99771.56
2018-10-03T17:01:28.577Z,99775.41
2018-10-03T17:04:35.612Z,99782.44
2018-10-03T17:07:41.090Z,99789.64
2018-10-03T17:10:47.594Z,99786.70
2018-10-03T17:14:02.960Z,99792.80
2018-10-03T17:17:09.618Z,99797.61
2018-10-03T17:20:15.394Z,99805.63
2018-10-03T17:23:23.766Z,99805.57
2018-10-03T17:26:30.955Z,99801.78
2018-10-03T17:29:36.370Z,99812.70
2018-10-03T17:43:41.472Z,99822.83
2018-10-03T17:47:02.735Z,99823.25
2018-10-03T17:50:15.152Z,99829.82
2018-10-03T17:53:25.778Z,99835.09
2018-10-03T17:56:32.727Z,99840.77
2018-10-03T17:59:38.908Z,99841.53
2018-10-03T18:02:44.990Z,99851.44
2018-10-03T18:05:50.180Z,99852.47
2018-10-03T18:12:27.277Z,99863.86
2018-10-03T18:15:33.446Z,99870.78
2018-10-03T18:18:40.610Z,99878.41
2018-10-03T18:21:45.778Z,99875.56
2018-10-03T18:24:53.143Z,99888.11
2018-10-03T18:28:00.211Z,99889.36
2018-10-03T18:31:13.104Z,99893.87
2018-10-03T18:34:18.944Z,99893.52
2018-10-03T18:37:28.140Z,99897.98
2018-10-03T18:40:33.975Z,99893.22
2018-10-03T18:43:40.313Z,99904.63
2018-10-03T18:46:47.977Z,99903.72
2018-10-03T18:49:53.849Z,99912.05
2018-10-03T18:53:00.495Z,99909.47
2018-10-03T18:56:06.704Z,99913.24
2018-10-03T18:59:12.717Z,99926.69
2018-10-03T19:02:25.727Z,99924.58
2018-10-03T19:05:30.983Z,99929.70
2018-10-03T19:08:36.876Z,99931.83
2018-10-03T19:11:42.152Z,99935.73
2018-10-03T19:14:47.213Z,99938.98
2018-10-03T19:17:53.488Z,99936.81
2018-10-03T19:21:01.617Z,99943.78
2018-10-03T19:24:08.195Z,99940.99
2018-10-03T19:27:13.842Z,99946.67
2018-10-03T19:30:19.155Z,99946.00
2018-10-03T19:33:25.353Z,99945.38
2018-10-03T19:36:32.359Z,99945.83
2018-10-03T19:39:44.776Z,99952.98
2018-10-03T19:42:50.975Z,99952.75
2018-10-03T19:45:58.022Z,99952.55
2018-10-03T19:49:05.146Z,99949.14
2018-10-03T19:52:11.162Z,99956.89
2018-10-03T19:55:17.160Z,99959.38
2018-10-03T19:58:23.953Z,99960.41
2018-10-03T20:01:29.915Z,99960.25
2018-10-03T20:04:35.801Z,99962.59
2018-10-03T20:07:40.923Z,99965.81
2018-10-03T20:10:47.316Z,99964.45
2018-10-03T20:13:53.298Z,99961.25
2018-10-03T20:17:00.167Z,99966.80
2018-10-03T20:20:06.085Z,99965.30
2018-10-03T20:23:12.182Z,99962.16
2018-10-03T20:26:19.286Z,99967.86
2018-10-03T20:29:25.436Z,99970.94
2018-10-03T20:32:33.917Z,99962.79
2018-10-03T20:35:39.674Z,99968.78
2018-10-03T20:38:44.815Z,99969.00
2018-10-03T20:41:49.913Z,99967.62
2018-10-03T20:44:54.916Z,99966.00
2018-10-03T20:48:00.746Z,99965.52
2018-10-03T20:51:06.727Z,99966.88
2018-10-03T20:54:11.783Z,99964.05
2018-10-03T20:57:16.929Z,99964.37
2018-10-03T21:00:24.111Z,99964.51
2018-10-03T21:03:31.141Z,99961.16
2018-10-03T21:06:36.600Z,99958.95
2018-10-03T21:09:42.975Z,99962.41
2018-10-03T21:15:02.097Z,99959.04
2018-10-03T21:18:08.104Z,99954.28
2018-10-03T21:21:14.409Z,99948.47
2018-10-03T21:24:20.682Z,99949.78
2018-10-03T21:27:26.528Z,99953.49
2018-10-03T21:30:32.539Z,99949.11
2018-10-03T21:33:37.594Z,99952.64
2018-10-03T21:36:44.504Z,99950.47
2018-10-03T21:39:50.471Z,99951.16
2018-10-03T21:42:55.453Z,99954.13
2018-10-03T21:46:00.444Z,99954.70
2018-10-03T21:49:05.621Z,99954.56
2018-10-03T21:52:13.205Z,99963.70
2018-10-03T21:55:19.397Z,99954.63
2018-10-03T21:58:25.050Z,99955.20
2018-10-03T22:01:32.603Z,99952.70
2018-10-03T22:04:37.621Z,99948.97
2018-10-03T22:07:43.934Z,99948.61
2018-10-03T22:10:49.942Z,99949.38
2018-10-03T22:13:55.015Z,99947.89
2018-10-03T22:17:01.005Z,99943.19
2018-10-03T22:20:07.038Z,99945.42
2018-10-03T22:23:13.662Z,99959.87
2018-10-03T22:26:19.366Z,99957.34
2018-10-03T22:29:25.269Z,99959.83
2018-10-03T22:32:31.261Z,99959.16
2018-10-03T22:35:36.941Z,99970.44
2018-10-03T22:38:45.049Z,99966.81
2018-10-03T22:41:52.007Z,99958.74
2018-10-03T22:44:57.814Z,99965.38
2018-10-03T22:48:10.642Z,99968.43
2018-10-03T22:51:16.779Z,99965.70
2018-10-03T22:54:24.263Z,99967.17
2018-10-03T22:57:30.022Z,99967.02
2018-10-03T23:00:35.778Z,99964.11
2018-10-03T23:03:41.814Z,99962.69
2018-10-03T23:06:47.478Z,99968.70
2018-10-03T23:09:53.141Z,99968.56
2018-10-03T23:12:58.148Z,99971.51
2018-10-03T23:16:04.245Z,99971.95
2018-10-03T23:19:09.997Z,99970.31
2018-10-03T23:22:15.850Z,99975.22
2018-10-03T23:25:20.989Z,99982.72
2018-10-03T23:28:27.986Z,99979.66
2018-10-03T23:31:34.201Z,99987.14
2018-10-03T23:34:40.079Z,99987.95
2018-10-03T23:37:46.145Z,99983.36
2018-10-03T23:40:56.599Z,99988.09
2018-10-03T23:44:02.444Z,99986.12
2018-10-03T23:47:15.306Z,99992.48
2018-10-03T23:50:21.249Z,99997.12
2018-10-03T23:53:33.133Z,99997.12
2018-10-03T23:56:39.418Z,100004.95
2018-10-03T23:59:45.561Z,100003.69
